Monday, June 25, 2018, 3:34 PM EDT
Back to Local

KILG, Wilmington New Castle Co

Location: New Castle, DE, United States Lat: 39.667
Local Time: 3:34 PM EDT (19:34 GMT) Lon: -75.6
Time Zone: US/Eastern Elev: 78 ft

Show me the last for .
Show Decoded

2018-06-25 14:51 METAR KILG 251851Z 34011G18KT 10SM CLR 29/14 A3007 RMK AO2 SLP180 T02940139 =
2018-06-25 13:51 METAR KILG 251751Z 34009G17KT 10SM FEW048 28/16 A3005 RMK AO2 SLP175 T02780156
                 10278 20222 50001 $ =
2018-06-25 12:51 METAR KILG 251651Z 33009KT 10SM CLR 27/16 A3006 RMK AO2 SLP176 T02720161 $ =
2018-06-25 11:51 METAR KILG 251551Z 01009G20KT 10SM FEW037 26/16 A3006 RMK AO2 SLP178 T02610156 $
                 =
2018-06-25 10:51 METAR KILG 251451Z 33012G20KT 10SM CLR 26/16 A3005 RMK AO2 SLP174 T02560161
                 53014 $ =
2018-06-25 09:51 METAR KILG 251351Z 32015KT 10SM CLR 24/16 A3003 RMK AO2 SLP168 T02440156 =
2018-06-25 08:51 METAR KILG 251251Z 33012KT 10SM CLR 23/16 A3002 RMK AO2 SLP166 T02330156 =
2018-06-25 07:51 METAR KILG 251151Z 33008KT 10SM CLR 22/16 A3001 RMK AO2 SLP160 T02220156 10222
                 20189 51025 =
2018-06-25 06:51 METAR KILG 251051Z 33009KT 10SM CLR 21/17 A3000 RMK AO2 SLP156 T02060167 =
2018-06-25 06:23 METAR KILG 251023Z 32006KT 10SM CLR 20/17 A2999 RMK AO2 T02000167 =
2018-06-25 05:51 METAR KILG 250951Z AUTO 31007KT 10SM CLR 19/16 A2998 RMK AO2 SLP151 T01940161 =
2018-06-25 04:51 METAR KILG 250851Z AUTO 32009KT 10SM CLR 20/16 A2993 RMK AO2 SLP135 T02000161
                 53014 =
2018-06-25 03:51 METAR KILG 250751Z AUTO 32008KT 10SM CLR 21/16 A2991 RMK AO2 SLP126 T02060161 =
2018-06-25 02:51 METAR KILG 250651Z AUTO 30005KT 10SM FEW090 19/16 A2990 RMK AO2 SLP123 T01940161
                 =
2018-06-25 01:51 METAR KILG 250551Z AUTO 27004KT 10SM CLR 21/17 A2989 RMK AO2 SLP121 60000
                 T02060167 10272 20206 51005 =
2018-06-25 00:51 METAR KILG 250451Z AUTO 27004KT 10SM CLR 22/17 A2988 RMK AO2 SLP118 T02170172
                 403170211 =
2018-06-24 23:51 METAR KILG 250351Z AUTO 28008KT 10SM CLR 22/19 A2989 RMK AO2 SLP120 T02220194 =
2018-06-24 22:51 METAR KILG 250251Z AUTO 29008KT 10SM CLR 23/19 A2988 RMK AO2 SLP116 60000
                 T02280189 51016 =
2018-06-24 21:51 METAR KILG 250151Z AUTO 28008KT 10SM CLR 24/20 A2987 RMK AO2 SLP114 T02440200 =
2018-06-24 20:51 METAR KILG 250051Z AUTO 31008KT 10SM CLR 24/20 A2985 RMK AO2 RAE2356 SLP105
                 P0000 T02440200 =
2018-06-24 19:51 METAR KILG 242351Z 26007KT 10SM -RA FEW040 SCT050 BKN090 27/21 A2983 RMK AO2 LTG
                 DSNT SW RAB37 SLP100 P0000 60000 T02670206 10317 20267 53008 =
2018-06-24 19:38 METAR KILG 242338Z 26010KT 10SM VCTS -RA SCT110 28/19 A2982 RMK AO2 LTG DSNT
                 NW-NE RAB37 P0000 T02830194 =
2018-06-24 18:51 METAR KILG 242251Z 24010KT 10SM CLR 29/19 A2981 RMK AO2 LTG DSNT N AND NW SLP092
                 T02890189 =
2018-06-24 17:51 METAR KILG 242151Z 23012KT 10SM CLR 31/19 A2980 RMK AO2 SLP091 T03060194 =
2018-06-24 16:51 METAR KILG 242051Z 24011KT 10SM CLR 29/19 A2981 RMK AO2 SLP092 T02940194 56009 =
2018-06-24 15:51 METAR KILG 241951Z 24009KT 10SM FEW049 SCT060 31/19 A2982 RMK AO2 SLP096
                 T03060194 =

Support USWX by starting your Amazon purchase here.